sensor_id;sensor_type;location;lat;lon;timestamp;P1;durP1;ratioP1;P2;durP2;ratioP2
52456;SDS011;38369;52.840;7.082;2023-11-18T00:02:17;198.93;;;29.65;;
52456;SDS011;38369;52.840;7.082;2023-11-18T00:04:43;170.35;;;26.33;;
52456;SDS011;38369;52.840;7.082;2023-11-18T00:07:09;181.10;;;29.80;;
52456;SDS011;38369;52.840;7.082;2023-11-18T00:09:35;215.82;;;31.40;;
52456;SDS011;38369;52.840;7.082;2023-11-18T00:12:02;144.48;;;27.45;;
52456;SDS011;38369;52.840;7.082;2023-11-18T00:14:29;212.45;;;32.63;;
52456;SDS011;38369;52.840;7.082;2023-11-18T00:16:55;123.40;;;26.40;;
52456;SDS011;38369;52.840;7.082;2023-11-18T00:19:24;210.82;;;30.63;;
52456;SDS011;38369;52.840;7.082;2023-11-18T00:21:50;164.23;;;29.35;;
52456;SDS011;38369;52.840;7.082;2023-11-18T00:24:16;136.00;;;27.50;;
52456;SDS011;38369;52.840;7.082;2023-11-18T00:26:42;182.13;;;29.60;;
52456;SDS011;38369;52.840;7.082;2023-11-18T00:29:08;99.07;;;26.20;;
52456;SDS011;38369;52.840;7.082;2023-11-18T00:31:34;98.45;;;24.25;;
52456;SDS011;38369;52.840;7.082;2023-11-18T00:34:00;95.90;;;23.92;;
52456;SDS011;38369;52.840;7.082;2023-11-18T00:36:26;126.95;;;28.58;;
52456;SDS011;38369;52.840;7.082;2023-11-18T00:38:53;99.80;;;23.00;;
52456;SDS011;38369;52.840;7.082;2023-11-18T00:41:19;104.22;;;26.15;;
52456;SDS011;38369;52.840;7.082;2023-11-18T00:43:46;112.57;;;26.00;;
52456;SDS011;38369;52.840;7.082;2023-11-18T00:46:12;138.95;;;30.65;;
52456;SDS011;38369;52.840;7.082;2023-11-18T00:48:38;142.40;;;28.08;;
52456;SDS011;38369;52.840;7.082;2023-11-18T00:51:05;161.25;;;31.00;;
52456;SDS011;38369;52.840;7.082;2023-11-18T00:53:32;182.75;;;32.20;;
52456;SDS011;38369;52.840;7.082;2023-11-18T00:55:58;149.38;;;32.00;;
52456;SDS011;38369;52.840;7.082;2023-11-18T00:58:25;60.67;;;25.50;;
52456;SDS011;38369;52.840;7.082;2023-11-18T01:00:51;48.17;;;24.65;;
52456;SDS011;38369;52.840;7.082;2023-11-18T01:03:17;51.78;;;25.45;;
52456;SDS011;38369;52.840;7.082;2023-11-18T01:05:43;45.03;;;24.25;;
52456;SDS011;38369;52.840;7.082;2023-11-18T01:08:09;46.65;;;24.27;;
52456;SDS011;38369;52.840;7.082;2023-11-18T01:10:35;39.28;;;24.33;;
52456;SDS011;38369;52.840;7.082;2023-11-18T01:13:01;38.50;;;24.65;;
52456;SDS011;38369;52.840;7.082;2023-11-18T01:15:27;39.08;;;25.23;;
52456;SDS011;38369;52.840;7.082;2023-11-18T01:17:53;38.15;;;24.35;;
52456;SDS011;38369;52.840;7.082;2023-11-18T01:20:19;42.70;;;26.25;;
52456;SDS011;38369;52.840;7.082;2023-11-18T01:22:47;39.55;;;25.35;;
52456;SDS011;38369;52.840;7.082;2023-11-18T01:25:14;39.55;;;26.40;;
52456;SDS011;38369;52.840;7.082;2023-11-18T01:27:44;38.90;;;26.07;;
52456;SDS011;38369;52.840;7.082;2023-11-18T01:30:13;39.50;;;26.02;;
52456;SDS011;38369;52.840;7.082;2023-11-18T01:32:39;39.67;;;26.00;;
52456;SDS011;38369;52.840;7.082;2023-11-18T01:35:06;46.42;;;27.42;;
52456;SDS011;38369;52.840;7.082;2023-11-18T01:37:33;52.40;;;28.83;;
52456;SDS011;38369;52.840;7.082;2023-11-18T01:39:59;46.53;;;29.83;;
52456;SDS011;38369;52.840;7.082;2023-11-18T01:44:56;45.58;;;27.92;;
52456;SDS011;38369;52.840;7.082;2023-11-18T01:47:24;50.45;;;28.60;;
52456;SDS011;38369;52.840;7.082;2023-11-18T01:49:51;53.58;;;30.67;;
52456;SDS011;38369;52.840;7.082;2023-11-18T01:52:17;52.22;;;30.08;;
52456;SDS011;38369;52.840;7.082;2023-11-18T01:54:43;52.15;;;29.80;;
52456;SDS011;38369;52.840;7.082;2023-11-18T01:57:10;47.47;;;27.67;;
52456;SDS011;38369;52.840;7.082;2023-11-18T01:59:36;55.60;;;29.73;;
52456;SDS011;38369;52.840;7.082;2023-11-18T02:02:03;43.92;;;27.33;;
52456;SDS011;38369;52.840;7.082;2023-11-18T02:04:30;49.95;;;29.90;;
52456;SDS011;38369;52.840;7.082;2023-11-18T02:06:56;61.45;;;30.38;;
52456;SDS011;38369;52.840;7.082;2023-11-18T02:09:22;51.20;;;30.02;;
52456;SDS011;38369;52.840;7.082;2023-11-18T02:14:35;90.00;;;34.95;;
52456;SDS011;38369;52.840;7.082;2023-11-18T02:17:04;95.78;;;37.28;;
52456;SDS011;38369;52.840;7.082;2023-11-18T02:19:31;88.85;;;35.35;;
52456;SDS011;38369;52.840;7.082;2023-11-18T02:21:57;168.25;;;44.42;;
52456;SDS011;38369;52.840;7.082;2023-11-18T02:24:24;176.65;;;46.90;;
52456;SDS011;38369;52.840;7.082;2023-11-18T02:26:50;218.85;;;48.78;;
52456;SDS011;38369;52.840;7.082;2023-11-18T02:29:16;176.55;;;44.15;;
52456;SDS011;38369;52.840;7.082;2023-11-18T02:31:42;258.17;;;52.15;;
52456;SDS011;38369;52.840;7.082;2023-11-18T02:34:13;263.83;;;51.22;;
52456;SDS011;38369;52.840;7.082;2023-11-18T02:36:44;321.80;;;56.50;;
52456;SDS011;38369;52.840;7.082;2023-11-18T02:39:12;265.30;;;56.38;;
52456;SDS011;38369;52.840;7.082;2023-11-18T02:41:42;210.05;;;45.22;;
52456;SDS011;38369;52.840;7.082;2023-11-18T02:44:11;213.57;;;48.08;;
52456;SDS011;38369;52.840;7.082;2023-11-18T02:46:42;147.55;;;42.70;;
52456;SDS011;38369;52.840;7.082;2023-11-18T02:49:08;195.82;;;46.97;;
52456;SDS011;38369;52.840;7.082;2023-11-18T02:51:35;153.52;;;42.75;;
52456;SDS011;38369;52.840;7.082;2023-11-18T02:54:05;105.15;;;38.28;;
52456;SDS011;38369;52.840;7.082;2023-11-18T02:56:31;79.85;;;34.85;;
52456;SDS011;38369;52.840;7.082;2023-11-18T02:58:57;132.05;;;42.42;;
52456;SDS011;38369;52.840;7.082;2023-11-18T03:01:24;194.30;;;46.22;;
52456;SDS011;38369;52.840;7.082;2023-11-18T03:03:52;324.67;;;64.75;;
52456;SDS011;38369;52.840;7.082;2023-11-18T03:06:20;326.77;;;56.63;;
52456;SDS011;38369;52.840;7.082;2023-11-18T03:08:46;216.07;;;52.10;;
52456;SDS011;38369;52.840;7.082;2023-11-18T03:11:12;128.10;;;43.05;;
52456;SDS011;38369;52.840;7.082;2023-11-18T03:13:38;173.07;;;43.92;;
52456;SDS011;38369;52.840;7.082;2023-11-18T03:16:08;118.72;;;39.10;;
52456;SDS011;38369;52.840;7.082;2023-11-18T03:18:41;192.75;;;47.03;;
52456;SDS011;38369;52.840;7.082;2023-11-18T03:21:14;276.27;;;57.37;;
52456;SDS011;38369;52.840;7.082;2023-11-18T03:23:40;424.77;;;69.72;;
52456;SDS011;38369;52.840;7.082;2023-11-18T03:26:07;391.38;;;61.30;;
52456;SDS011;38369;52.840;7.082;2023-11-18T03:28:33;394.90;;;70.13;;
52456;SDS011;38369;52.840;7.082;2023-11-18T03:31:01;239.68;;;51.70;;
52456;SDS011;38369;52.840;7.082;2023-11-18T03:33:28;477.13;;;73.32;;
52456;SDS011;38369;52.840;7.082;2023-11-18T03:35:54;423.58;;;66.20;;
52456;SDS011;38369;52.840;7.082;2023-11-18T03:38:21;365.63;;;56.22;;
52456;SDS011;38369;52.840;7.082;2023-11-18T03:40:47;300.15;;;58.40;;
52456;SDS011;38369;52.840;7.082;2023-11-18T03:43:13;383.45;;;64.88;;
52456;SDS011;38369;52.840;7.082;2023-11-18T03:45:39;282.92;;;59.95;;
52456;SDS011;38369;52.840;7.082;2023-11-18T03:48:06;121.50;;;40.70;;
52456;SDS011;38369;52.840;7.082;2023-11-18T03:50:32;203.10;;;49.78;;
52456;SDS011;38369;52.840;7.082;2023-11-18T03:52:58;269.75;;;55.83;;
52456;SDS011;38369;52.840;7.082;2023-11-18T03:55:24;189.88;;;48.80;;
52456;SDS011;38369;52.840;7.082;2023-11-18T03:57:54;184.68;;;45.13;;
52456;SDS011;38369;52.840;7.082;2023-11-18T04:00:22;231.85;;;49.05;;
52456;SDS011;38369;52.840;7.082;2023-11-18T04:02:54;163.20;;;38.60;;
52456;SDS011;38369;52.840;7.082;2023-11-18T04:05:20;298.15;;;55.47;;
52456;SDS011;38369;52.840;7.082;2023-11-18T04:07:46;220.63;;;48.58;;
52456;SDS011;38369;52.840;7.082;2023-11-18T04:10:12;166.40;;;41.30;;
52456;SDS011;38369;52.840;7.082;2023-11-18T04:12:39;215.02;;;46.38;;
52456;SDS011;38369;52.840;7.082;2023-11-18T04:15:05;173.73;;;44.97;;
52456;SDS011;38369;52.840;7.082;2023-11-18T04:17:32;271.73;;;57.13;;
52456;SDS011;38369;52.840;7.082;2023-11-18T04:19:58;169.63;;;41.50;;
52456;SDS011;38369;52.840;7.082;2023-11-18T04:22:24;194.80;;;47.83;;
52456;SDS011;38369;52.840;7.082;2023-11-18T04:24:50;212.45;;;50.35;;
52456;SDS011;38369;52.840;7.082;2023-11-18T04:27:16;177.50;;;48.28;;
52456;SDS011;38369;52.840;7.082;2023-11-18T04:29:42;110.30;;;40.40;;
52456;SDS011;38369;52.840;7.082;2023-11-18T04:32:08;274.67;;;54.92;;
52456;SDS011;38369;52.840;7.082;2023-11-18T04:34:37;292.60;;;62.55;;
52456;SDS011;38369;52.840;7.082;2023-11-18T04:37:04;123.57;;;41.70;;
52456;SDS011;38369;52.840;7.082;2023-11-18T04:39:34;277.40;;;59.53;;
52456;SDS011;38369;52.840;7.082;2023-11-18T04:42:02;256.65;;;56.72;;
52456;SDS011;38369;52.840;7.082;2023-11-18T04:44:28;217.88;;;54.53;;
52456;SDS011;38369;52.840;7.082;2023-11-18T04:46:56;194.68;;;49.83;;
52456;SDS011;38369;52.840;7.082;2023-11-18T04:49:22;408.25;;;74.45;;
52456;SDS011;38369;52.840;7.082;2023-11-18T04:51:49;207.20;;;55.60;;
52456;SDS011;38369;52.840;7.082;2023-11-18T04:54:15;172.00;;;50.22;;
52456;SDS011;38369;52.840;7.082;2023-11-18T04:56:41;187.23;;;52.63;;
52456;SDS011;38369;52.840;7.082;2023-11-18T04:59:07;186.02;;;56.65;;
52456;SDS011;38369;52.840;7.082;2023-11-18T05:01:33;157.88;;;49.60;;
52456;SDS011;38369;52.840;7.082;2023-11-18T05:03:59;141.68;;;49.00;;
52456;SDS011;38369;52.840;7.082;2023-11-18T05:06:25;106.95;;;44.13;;
52456;SDS011;38369;52.840;7.082;2023-11-18T05:08:52;119.97;;;47.42;;
52456;SDS011;38369;52.840;7.082;2023-11-18T05:11:18;108.32;;;41.40;;
52456;SDS011;38369;52.840;7.082;2023-11-18T05:13:44;108.65;;;43.88;;
52456;SDS011;38369;52.840;7.082;2023-11-18T05:16:10;98.78;;;42.58;;
52456;SDS011;38369;52.840;7.082;2023-11-18T05:18:36;98.25;;;40.03;;
52456;SDS011;38369;52.840;7.082;2023-11-18T05:21:03;93.18;;;38.90;;
52456;SDS011;38369;52.840;7.082;2023-11-18T05:23:30;112.88;;;42.42;;
52456;SDS011;38369;52.840;7.082;2023-11-18T05:25:56;90.20;;;37.35;;
52456;SDS011;38369;52.840;7.082;2023-11-18T05:28:23;89.88;;;39.33;;
52456;SDS011;38369;52.840;7.082;2023-11-18T05:30:49;102.38;;;41.63;;
52456;SDS011;38369;52.840;7.082;2023-11-18T05:33:16;92.72;;;40.20;;
52456;SDS011;38369;52.840;7.082;2023-11-18T05:35:43;99.97;;;39.80;;
52456;SDS011;38369;52.840;7.082;2023-11-18T05:38:15;90.97;;;38.63;;
52456;SDS011;38369;52.840;7.082;2023-11-18T05:40:43;82.03;;;37.53;;
52456;SDS011;38369;52.840;7.082;2023-11-18T05:43:19;86.97;;;38.55;;
52456;SDS011;38369;52.840;7.082;2023-11-18T05:45:46;79.45;;;37.30;;
52456;SDS011;38369;52.840;7.082;2023-11-18T05:48:32;78.05;;;35.15;;
52456;SDS011;38369;52.840;7.082;2023-11-18T05:50:58;99.20;;;38.22;;
52456;SDS011;38369;52.840;7.082;2023-11-18T05:53:24;93.80;;;37.53;;
52456;SDS011;38369;52.840;7.082;2023-11-18T05:55:50;81.97;;;36.53;;
52456;SDS011;38369;52.840;7.082;2023-11-18T05:58:16;92.85;;;37.03;;
52456;SDS011;38369;52.840;7.082;2023-11-18T06:00:42;95.32;;;38.28;;
52456;SDS011;38369;52.840;7.082;2023-11-18T06:03:08;91.82;;;38.53;;
52456;SDS011;38369;52.840;7.082;2023-11-18T06:05:36;82.13;;;37.17;;
52456;SDS011;38369;52.840;7.082;2023-11-18T06:08:02;92.78;;;38.17;;
52456;SDS011;38369;52.840;7.082;2023-11-18T06:10:29;85.60;;;37.75;;
52456;SDS011;38369;52.840;7.082;2023-11-18T06:12:59;92.47;;;38.58;;
52456;SDS011;38369;52.840;7.082;2023-11-18T06:15:25;94.50;;;39.17;;
52456;SDS011;38369;52.840;7.082;2023-11-18T06:17:52;104.80;;;42.72;;
52456;SDS011;38369;52.840;7.082;2023-11-18T06:20:20;103.63;;;41.92;;
52456;SDS011;38369;52.840;7.082;2023-11-18T06:22:48;100.07;;;41.38;;
52456;SDS011;38369;52.840;7.082;2023-11-18T06:25:14;103.70;;;41.53;;
52456;SDS011;38369;52.840;7.082;2023-11-18T06:27:43;101.72;;;41.13;;
52456;SDS011;38369;52.840;7.082;2023-11-18T06:30:11;99.15;;;41.20;;
52456;SDS011;38369;52.840;7.082;2023-11-18T06:32:37;85.53;;;40.00;;
52456;SDS011;38369;52.840;7.082;2023-11-18T06:35:04;89.75;;;38.55;;
52456;SDS011;38369;52.840;7.082;2023-11-18T06:37:34;80.70;;;36.20;;
52456;SDS011;38369;52.840;7.082;2023-11-18T06:40:00;98.72;;;38.55;;
52456;SDS011;38369;52.840;7.082;2023-11-18T06:42:26;83.13;;;36.72;;
52456;SDS011;38369;52.840;7.082;2023-11-18T06:44:52;80.07;;;36.75;;
52456;SDS011;38369;52.840;7.082;2023-11-18T06:47:18;98.15;;;40.10;;
52456;SDS011;38369;52.840;7.082;2023-11-18T06:49:45;84.13;;;38.38;;
52456;SDS011;38369;52.840;7.082;2023-11-18T06:52:12;98.55;;;39.92;;
52456;SDS011;38369;52.840;7.082;2023-11-18T06:54:41;83.63;;;39.50;;
52456;SDS011;38369;52.840;7.082;2023-11-18T06:57:07;92.85;;;40.35;;
52456;SDS011;38369;52.840;7.082;2023-11-18T06:59:33;94.45;;;42.78;;
52456;SDS011;38369;52.840;7.082;2023-11-18T07:01:59;90.60;;;39.83;;
52456;SDS011;38369;52.840;7.082;2023-11-18T07:04:25;87.55;;;40.60;;
52456;SDS011;38369;52.840;7.082;2023-11-18T07:06:52;106.25;;;42.60;;
52456;SDS011;38369;52.840;7.082;2023-11-18T07:09:18;109.55;;;45.80;;
52456;SDS011;38369;52.840;7.082;2023-11-18T07:11:46;110.50;;;44.30;;
52456;SDS011;38369;52.840;7.082;2023-11-18T07:14:12;101.90;;;43.20;;
52456;SDS011;38369;52.840;7.082;2023-11-18T07:16:40;111.50;;;45.10;;
52456;SDS011;38369;52.840;7.082;2023-11-18T07:19:06;124.18;;;45.90;;
52456;SDS011;38369;52.840;7.082;2023-11-18T07:21:33;114.82;;;43.70;;
52456;SDS011;38369;52.840;7.082;2023-11-18T07:23:59;118.28;;;47.72;;
52456;SDS011;38369;52.840;7.082;2023-11-18T07:26:25;114.28;;;44.03;;
52456;SDS011;38369;52.840;7.082;2023-11-18T07:28:51;100.72;;;41.95;;
52456;SDS011;38369;52.840;7.082;2023-11-18T07:31:17;111.32;;;45.03;;
52456;SDS011;38369;52.840;7.082;2023-11-18T07:33:44;103.53;;;43.88;;
52456;SDS011;38369;52.840;7.082;2023-11-18T07:36:14;117.25;;;46.50;;
52456;SDS011;38369;52.840;7.082;2023-11-18T07:38:40;119.50;;;46.95;;
52456;SDS011;38369;52.840;7.082;2023-11-18T07:41:07;111.00;;;48.17;;
52456;SDS011;38369;52.840;7.082;2023-11-18T07:43:34;113.63;;;46.75;;
52456;SDS011;38369;52.840;7.082;2023-11-18T07:46:01;112.18;;;49.72;;
52456;SDS011;38369;52.840;7.082;2023-11-18T07:48:27;99.85;;;43.65;;
52456;SDS011;38369;52.840;7.082;2023-11-18T07:50:56;114.90;;;46.38;;
52456;SDS011;38369;52.840;7.082;2023-11-18T07:53:22;128.93;;;47.22;;
52456;SDS011;38369;52.840;7.082;2023-11-18T07:55:48;112.75;;;48.20;;
52456;SDS011;38369;52.840;7.082;2023-11-18T07:58:15;124.63;;;48.65;;
52456;SDS011;38369;52.840;7.082;2023-11-18T08:00:43;116.47;;;44.67;;
52456;SDS011;38369;52.840;7.082;2023-11-18T08:03:13;115.47;;;43.97;;
52456;SDS011;38369;52.840;7.082;2023-11-18T08:05:42;103.00;;;42.00;;
52456;SDS011;38369;52.840;7.082;2023-11-18T08:08:09;115.10;;;45.80;;
52456;SDS011;38369;52.840;7.082;2023-11-18T08:10:35;117.05;;;43.90;;
52456;SDS011;38369;52.840;7.082;2023-11-18T08:13:05;107.70;;;44.17;;
52456;SDS011;38369;52.840;7.082;2023-11-18T08:15:32;117.75;;;44.67;;
52456;SDS011;38369;52.840;7.082;2023-11-18T08:17:59;105.13;;;44.92;;
52456;SDS011;38369;52.840;7.082;2023-11-18T08:20:25;105.15;;;44.05;;
52456;SDS011;38369;52.840;7.082;2023-11-18T08:22:51;101.72;;;43.67;;
52456;SDS011;38369;52.840;7.082;2023-11-18T08:25:18;110.93;;;45.45;;
52456;SDS011;38369;52.840;7.082;2023-11-18T08:27:44;111.97;;;48.17;;
52456;SDS011;38369;52.840;7.082;2023-11-18T08:30:13;120.97;;;47.83;;
52456;SDS011;38369;52.840;7.082;2023-11-18T08:32:40;140.95;;;51.58;;
52456;SDS011;38369;52.840;7.082;2023-11-18T08:35:09;140.45;;;51.47;;
52456;SDS011;38369;52.840;7.082;2023-11-18T08:37:38;124.43;;;53.42;;
52456;SDS011;38369;52.840;7.082;2023-11-18T08:40:05;118.38;;;47.78;;
52456;SDS011;38369;52.840;7.082;2023-11-18T08:42:44;153.15;;;56.40;;
52456;SDS011;38369;52.840;7.082;2023-11-18T08:45:18;123.78;;;51.13;;
52456;SDS011;38369;52.840;7.082;2023-11-18T08:47:46;131.18;;;51.10;;
52456;SDS011;38369;52.840;7.082;2023-11-18T08:50:15;153.18;;;55.50;;
52456;SDS011;38369;52.840;7.082;2023-11-18T08:52:45;149.07;;;57.20;;
52456;SDS011;38369;52.840;7.082;2023-11-18T08:55:14;143.05;;;53.60;;
52456;SDS011;38369;52.840;7.082;2023-11-18T08:57:48;138.57;;;54.90;;
52456;SDS011;38369;52.840;7.082;2023-11-18T09:00:23;153.13;;;57.78;;
52456;SDS011;38369;52.840;7.082;2023-11-18T09:05:49;120.20;;;45.30;;
52456;SDS011;38369;52.840;7.082;2023-11-18T09:08:25;167.20;;;58.60;;
52456;SDS011;38369;52.840;7.082;2023-11-18T09:10:52;155.20;;;58.63;;
52456;SDS011;38369;52.840;7.082;2023-11-18T09:13:24;137.82;;;58.60;;
52456;SDS011;38369;52.840;7.082;2023-11-18T09:15:58;169.60;;;59.63;;
52456;SDS011;38369;52.840;7.082;2023-11-18T09:18:28;154.18;;;57.35;;
52456;SDS011;38369;52.840;7.082;2023-11-18T09:20:55;145.90;;;59.08;;
52456;SDS011;38369;52.840;7.082;2023-11-18T09:23:24;129.13;;;57.53;;
52456;SDS011;38369;52.840;7.082;2023-11-18T09:25:50;137.18;;;59.53;;
52456;SDS011;38369;52.840;7.082;2023-11-18T09:28:18;125.72;;;54.10;;
52456;SDS011;38369;52.840;7.082;2023-11-18T09:30:47;126.15;;;53.28;;
52456;SDS011;38369;52.840;7.082;2023-11-18T09:33:22;128.57;;;54.88;;
52456;SDS011;38369;52.840;7.082;2023-11-18T09:36:04;113.40;;;52.13;;
52456;SDS011;38369;52.840;7.082;2023-11-18T09:38:36;115.28;;;50.10;;
52456;SDS011;38369;52.840;7.082;2023-11-18T09:41:07;76.57;;;37.03;;
52456;SDS011;38369;52.840;7.082;2023-11-18T09:43:36;100.93;;;47.95;;
52456;SDS011;38369;52.840;7.082;2023-11-18T09:46:10;106.47;;;45.95;;
52456;SDS011;38369;52.840;7.082;2023-11-18T09:48:43;100.68;;;47.78;;
52456;SDS011;38369;52.840;7.082;2023-11-18T09:51:22;88.32;;;44.30;;
52456;SDS011;38369;52.840;7.082;2023-11-18T09:53:58;88.53;;;42.45;;
52456;SDS011;38369;52.840;7.082;2023-11-18T10:01:50;87.43;;;41.05;;
52456;SDS011;38369;52.840;7.082;2023-11-18T10:04:18;78.43;;;40.80;;
52456;SDS011;38369;52.840;7.082;2023-11-18T10:06:45;91.20;;;42.63;;
52456;SDS011;38369;52.840;7.082;2023-11-18T10:11:43;80.50;;;39.58;;
52456;SDS011;38369;52.840;7.082;2023-11-18T10:14:12;80.82;;;40.85;;
52456;SDS011;38369;52.840;7.082;2023-11-18T10:16:40;76.35;;;38.00;;
52456;SDS011;38369;52.840;7.082;2023-11-18T10:19:06;76.63;;;39.67;;
52456;SDS011;38369;52.840;7.082;2023-11-18T10:21:37;81.57;;;44.63;;
52456;SDS011;38369;52.840;7.082;2023-11-18T10:24:06;81.55;;;45.83;;
52456;SDS011;38369;52.840;7.082;2023-11-18T10:26:54;68.40;;;38.55;;
52456;SDS011;38369;52.840;7.082;2023-11-18T10:29:26;76.28;;;40.55;;
52456;SDS011;38369;52.840;7.082;2023-11-18T10:32:05;67.50;;;36.53;;
52456;SDS011;38369;52.840;7.082;2023-11-18T10:34:41;72.10;;;39.30;;
52456;SDS011;38369;52.840;7.082;2023-11-18T10:37:08;63.58;;;36.38;;
52456;SDS011;38369;52.840;7.082;2023-11-18T10:39:35;67.35;;;36.97;;
52456;SDS011;38369;52.840;7.082;2023-11-18T10:42:02;71.43;;;36.47;;
52456;SDS011;38369;52.840;7.082;2023-11-18T10:44:28;62.92;;;35.33;;
52456;SDS011;38369;52.840;7.082;2023-11-18T10:46:54;62.97;;;35.33;;
52456;SDS011;38369;52.840;7.082;2023-11-18T10:49:27;66.22;;;34.92;;
52456;SDS011;38369;52.840;7.082;2023-11-18T10:51:55;73.63;;;35.65;;
52456;SDS011;38369;52.840;7.082;2023-11-18T10:54:21;69.28;;;34.58;;
52456;SDS011;38369;52.840;7.082;2023-11-18T10:56:51;62.03;;;33.78;;
52456;SDS011;38369;52.840;7.082;2023-11-18T10:59:21;62.25;;;33.97;;
52456;SDS011;38369;52.840;7.082;2023-11-18T11:01:48;60.65;;;33.75;;
52456;SDS011;38369;52.840;7.082;2023-11-18T11:04:14;65.45;;;32.92;;
52456;SDS011;38369;52.840;7.082;2023-11-18T11:06:46;67.63;;;33.88;;
52456;SDS011;38369;52.840;7.082;2023-11-18T11:09:18;59.60;;;32.85;;
52456;SDS011;38369;52.840;7.082;2023-11-18T11:11:55;64.20;;;33.83;;
52456;SDS011;38369;52.840;7.082;2023-11-18T11:14:40;58.03;;;31.63;;
52456;SDS011;38369;52.840;7.082;2023-11-18T11:17:12;53.25;;;29.73;;
52456;SDS011;38369;52.840;7.082;2023-11-18T11:19:50;56.25;;;31.23;;
52456;SDS011;38369;52.840;7.082;2023-11-18T11:22:21;64.30;;;31.98;;
52456;SDS011;38369;52.840;7.082;2023-11-18T11:27:38;58.00;;;31.30;;
52456;SDS011;38369;52.840;7.082;2023-11-18T11:30:12;55.38;;;29.20;;
52456;SDS011;38369;52.840;7.082;2023-11-18T11:32:50;59.92;;;33.20;;
52456;SDS011;38369;52.840;7.082;2023-11-18T11:35:23;57.92;;;31.35;;
52456;SDS011;38369;52.840;7.082;2023-11-18T11:37:53;51.67;;;28.70;;
52456;SDS011;38369;52.840;7.082;2023-11-18T11:40:22;60.42;;;29.70;;
52456;SDS011;38369;52.840;7.082;2023-11-18T11:42:49;51.08;;;29.92;;
52456;SDS011;38369;52.840;7.082;2023-11-18T11:45:25;54.83;;;29.40;;
52456;SDS011;38369;52.840;7.082;2023-11-18T11:47:56;52.28;;;27.88;;
52456;SDS011;38369;52.840;7.082;2023-11-18T11:53:29;48.35;;;27.25;;
52456;SDS011;38369;52.840;7.082;2023-11-18T11:55:56;45.42;;;26.98;;
52456;SDS011;38369;52.840;7.082;2023-11-18T11:58:31;50.83;;;28.15;;
52456;SDS011;38369;52.840;7.082;2023-11-18T12:01:01;43.88;;;27.70;;
52456;SDS011;38369;52.840;7.082;2023-11-18T12:03:38;47.80;;;27.85;;
52456;SDS011;38369;52.840;7.082;2023-11-18T12:06:04;50.78;;;25.33;;
52456;SDS011;38369;52.840;7.082;2023-11-18T12:08:35;46.03;;;26.00;;
52456;SDS011;38369;52.840;7.082;2023-11-18T12:11:05;45.85;;;26.17;;
52456;SDS011;38369;52.840;7.082;2023-11-18T12:13:34;48.03;;;27.20;;
52456;SDS011;38369;52.840;7.082;2023-11-18T12:16:04;44.40;;;25.43;;
52456;SDS011;38369;52.840;7.082;2023-11-18T12:18:30;45.05;;;25.08;;
52456;SDS011;38369;52.840;7.082;2023-11-18T12:20:59;39.63;;;24.17;;
52456;SDS011;38369;52.840;7.082;2023-11-18T12:23:29;38.78;;;23.27;;
52456;SDS011;38369;52.840;7.082;2023-11-18T12:25:55;41.10;;;22.85;;
52456;SDS011;38369;52.840;7.082;2023-11-18T12:28:29;41.63;;;24.52;;
52456;SDS011;38369;52.840;7.082;2023-11-18T12:30:59;36.95;;;22.83;;
52456;SDS011;38369;52.840;7.082;2023-11-18T12:41:37;48.33;;;25.02;;
52456;SDS011;38369;52.840;7.082;2023-11-18T12:46:55;42.25;;;22.77;;
52456;SDS011;38369;52.840;7.082;2023-11-18T12:49:41;44.55;;;24.63;;
52456;SDS011;38369;52.840;7.082;2023-11-18T12:52:07;44.13;;;25.67;;
52456;SDS011;38369;52.840;7.082;2023-11-18T12:54:34;47.25;;;27.33;;
52456;SDS011;38369;52.840;7.082;2023-11-18T12:57:02;56.28;;;30.90;;
52456;SDS011;38369;52.840;7.082;2023-11-18T12:59:32;49.78;;;28.77;;
52456;SDS011;38369;52.840;7.082;2023-11-18T13:01:58;55.13;;;29.25;;
52456;SDS011;38369;52.840;7.082;2023-11-18T13:04:29;49.58;;;28.30;;
52456;SDS011;38369;52.840;7.082;2023-11-18T13:06:55;72.30;;;40.08;;
52456;SDS011;38369;52.840;7.082;2023-11-18T13:09:21;52.65;;;31.02;;
52456;SDS011;38369;52.840;7.082;2023-11-18T13:11:52;59.77;;;29.20;;
52456;SDS011;38369;52.840;7.082;2023-11-18T13:14:18;49.35;;;25.25;;
52456;SDS011;38369;52.840;7.082;2023-11-18T13:16:44;45.20;;;26.38;;
52456;SDS011;38369;52.840;7.082;2023-11-18T13:19:11;54.15;;;27.60;;
52456;SDS011;38369;52.840;7.082;2023-11-18T13:21:36;50.95;;;27.00;;
52456;SDS011;38369;52.840;7.082;2023-11-18T13:24:02;48.22;;;27.65;;
52456;SDS011;38369;52.840;7.082;2023-11-18T13:26:30;53.53;;;27.35;;
52456;SDS011;38369;52.840;7.082;2023-11-18T13:28:58;54.38;;;28.33;;
52456;SDS011;38369;52.840;7.082;2023-11-18T13:31:24;50.72;;;26.45;;
52456;SDS011;38369;52.840;7.082;2023-11-18T13:33:50;58.60;;;26.52;;
52456;SDS011;38369;52.840;7.082;2023-11-18T13:36:16;59.03;;;30.00;;
52456;SDS011;38369;52.840;7.082;2023-11-18T13:38:43;52.75;;;26.77;;
52456;SDS011;38369;52.840;7.082;2023-11-18T13:41:09;59.78;;;27.50;;
52456;SDS011;38369;52.840;7.082;2023-11-18T13:43:44;57.00;;;28.38;;
52456;SDS011;38369;52.840;7.082;2023-11-18T13:46:17;60.05;;;28.42;;
52456;SDS011;38369;52.840;7.082;2023-11-18T13:48:47;62.92;;;28.13;;
52456;SDS011;38369;52.840;7.082;2023-11-18T13:51:14;49.58;;;27.08;;
52456;SDS011;38369;52.840;7.082;2023-11-18T13:53:42;58.88;;;28.67;;
52456;SDS011;38369;52.840;7.082;2023-11-18T13:56:09;47.78;;;26.48;;
52456;SDS011;38369;52.840;7.082;2023-11-18T13:58:36;53.55;;;27.98;;
52456;SDS011;38369;52.840;7.082;2023-11-18T14:01:09;56.75;;;28.95;;
52456;SDS011;38369;52.840;7.082;2023-11-18T14:03:37;54.35;;;27.65;;
52456;SDS011;38369;52.840;7.082;2023-11-18T14:06:07;53.42;;;27.58;;
52456;SDS011;38369;52.840;7.082;2023-11-18T14:08:35;52.10;;;26.55;;
52456;SDS011;38369;52.840;7.082;2023-11-18T14:11:02;52.55;;;27.73;;
52456;SDS011;38369;52.840;7.082;2023-11-18T14:13:30;52.10;;;27.27;;
52456;SDS011;38369;52.840;7.082;2023-11-18T14:15:59;48.55;;;25.60;;
52456;SDS011;38369;52.840;7.082;2023-11-18T14:18:25;46.28;;;25.55;;
52456;SDS011;38369;52.840;7.082;2023-11-18T14:20:52;48.70;;;25.23;;
52456;SDS011;38369;52.840;7.082;2023-11-18T14:23:18;53.28;;;24.90;;
52456;SDS011;38369;52.840;7.082;2023-11-18T14:25:46;48.17;;;23.85;;
52456;SDS011;38369;52.840;7.082;2023-11-18T14:28:12;58.70;;;25.75;;
52456;SDS011;38369;52.840;7.082;2023-11-18T14:30:38;46.83;;;24.63;;
52456;SDS011;38369;52.840;7.082;2023-11-18T14:33:05;43.55;;;24.88;;
52456;SDS011;38369;52.840;7.082;2023-11-18T14:35:32;46.15;;;24.88;;
52456;SDS011;38369;52.840;7.082;2023-11-18T14:37:59;46.05;;;25.00;;
52456;SDS011;38369;52.840;7.082;2023-11-18T14:40:26;47.42;;;24.75;;
52456;SDS011;38369;52.840;7.082;2023-11-18T14:42:53;50.70;;;25.80;;
52456;SDS011;38369;52.840;7.082;2023-11-18T14:45:19;47.33;;;26.17;;
52456;SDS011;38369;52.840;7.082;2023-11-18T14:47:46;53.90;;;25.08;;
52456;SDS011;38369;52.840;7.082;2023-11-18T14:50:22;48.55;;;25.40;;
52456;SDS011;38369;52.840;7.082;2023-11-18T14:52:50;46.05;;;25.25;;
52456;SDS011;38369;52.840;7.082;2023-11-18T14:55:23;48.00;;;23.42;;